New Boston, MI (48164)

2:11 AM EST on February 10, 2016 (GMT -0500)
Timber Creek | | Change Station
CLOSE
Current Station
Personal Weather Station
Location: Brownstown Charter Township, MI
Elevation: 615 ft
Nearby Weather Stations

Elev 615 ft 42.13 °N, 83.29 °W | Updated 23 seconds ago

Snow
Snow
24.3 °F
Feels Like 24 °F
N
2.7
Wind Variable Wind from WNW
Gusts 4.9 mph

Today
High -- | Low -- °F
--% Chance of Precip.
Yesterday
High -- | Low -- °F
Precip. -- in
Pressure 29.72 in
Visibility 2.0 miles
Clouds Mostly Cloudy 2000 ft
Overcast 3500 ft
Windchill 24 °F
Dew Point 15 °F
Humidity 68%
Rainfall 0.00 in
Snow Depth Not available.
7:36 AM 5:59 PM
Waxing Crescent, 4% visible
SPECI KDTW 100705Z 26011KT 2SM -SN BKN020 OVC035 M04/M07 A2972 RMK AO2 TWR VIS 4 P0000
Pressure 29.72 in
Visibility 2.0 miles
Clouds Mostly Cloudy 2000 ft
Overcast 3500 ft
Windchill 24 °F
Dew Point 15 °F
Humidity 68%
Rainfall 0.00 in
Snow Depth Not available.
7:36 AM 5:59 PM
Waxing Crescent, 4% visible
SPECI KDTW 100705Z 26011KT 2SM -SN BKN020 OVC035 M04/M07 A2972 RMK AO2 TWR VIS 4 P0000

10-Day Weather Forecast

Almanac

Astronomy

Feb. 10, 2016 Rise Set
Actual Time
Civil Twilight
Nautical Twilight
Astronomical Twilight
Moon
Length of Visible Light
Length of Day
Tomorrow will be .
, % of the Moon is Illuminated

Today's Extremes

State Highs State Lows

Community

WunderPhotos

Upload Photos

1,891,826 photos uploaded!

WunderBlog® & News

Nearby

Air Quality

  Air Quality AQ Index Pollutant
Not available.

Snow Depth

Station Depth Elevation

Earthquake Activity

City Distance Mag. Time & Date
Minimum magnitude displayed is 2.5.

Coastal Water Temperatures

Place Temperature

Stations

Nearby Weather Stations

Station Location Temp. Windchill Dew Point Humidity Wind Precip. Elev Updated Type
                   

Watches & Warnings

There are currently no watches in effect.